Time,TemperatureF,DewpointF,PressureIn,WindDirection,WindDirectionDegrees,WindSpeedMPH,WindSpeedGustMPH,Humidity,HourlyPrecipIn,Conditions,Clouds,dailyrainin,SoftwareType,DateUTC
2013-01-23 00:00:00,67.5,35.0,30.18,NE,44,2.0,13.0,30,0.00,,FEW049,0.00,VWS V13.01,2013-01-23 05:00:00,
2013-01-23 00:02:00,67.5,34.2,30.18,NE,34,3.0,9.0,29,0.00,,FEW049,0.00,VWS V13.01,2013-01-23 05:02:00,
2013-01-23 00:03:00,67.5,35.0,30.18,NE,42,2.0,9.0,30,0.00,,FEW049,0.00,VWS V13.01,2013-01-23 05:03:00,
2013-01-23 00:08:00,67.5,35.8,30.19,NE,51,2.0,13.0,31,0.00,,FEW049,0.00,VWS V13.01,2013-01-23 05:08:00,
2013-01-23 00:13:00,67.7,37.6,30.19,NE,43,3.0,13.0,33,0.00,,FEW049,0.00,VWS V13.01,2013-01-23 05:13:00,
2013-01-23 00:18:00,67.8,38.4,30.19,NNE,30,1.0,13.0,34,0.00,,FEW049,0.00,VWS V13.01,2013-01-23 05:18:00,
2013-01-23 00:23:00,67.8,39.2,30.18,NE,36,3.0,13.0,35,0.00,,FEW049,0.00,VWS V13.01,2013-01-23 05:23:00,
2013-01-23 00:28:00,67.7,39.8,30.19,NE,47,0.0,13.0,36,0.00,,FEW049,0.00,VWS V13.01,2013-01-23 05:28:00,
2013-01-23 00:33:00,67.7,39.8,30.19,NNE,24,4.0,10.0,36,0.00,,FEW049,0.00,VWS V13.01,2013-01-23 05:33:00,
2013-01-23 00:38:00,67.9,41.4,30.19,NNE,26,0.0,10.0,38,0.00,,FEW049,0.00,VWS V13.01,2013-01-23 05:38:00,
2013-01-23 00:43:00,68.0,42.8,30.20,NE,41,1.0,10.0,40,0.00,,FEW049,0.00,VWS V13.01,2013-01-23 05:43:00,
2013-01-23 00:48:00,68.0,42.8,30.20,NE,46,2.0,10.0,40,0.00,,FEW049,0.00,VWS V13.01,2013-01-23 05:48:00,
2013-01-23 00:53:00,67.8,41.3,30.19,NE,45,0.0,10.0,38,0.00,,FEW049,0.00,VWS V13.01,2013-01-23 05:53:00,
2013-01-23 00:58:00,67.8,42.0,30.19,NE,37,1.0,10.0,39,0.00,,FEW049,0.00,VWS V13.01,2013-01-23 05:58:00,
2013-01-23 01:03:00,67.9,44.0,30.18,NE,38,0.0,9.0,42,0.00,,FEW047,0.00,VWS V13.01,2013-01-23 06:03:00,
2013-01-23 01:08:00,68.1,45.4,30.18,ENE,61,0.0,10.0,44,0.00,,FEW047,0.00,VWS V13.01,2013-01-23 06:08:00,
2013-01-23 01:13:00,68.1,45.4,30.19,ENE,63,0.0,10.0,44,0.00,,FEW047,0.00,VWS V13.01,2013-01-23 06:13:00,
2013-01-23 01:18:00,68.0,44.7,30.19,NE,36,4.0,10.0,43,0.00,,FEW047,0.00,VWS V13.01,2013-01-23 06:18:00,
2013-01-23 01:23:00,68.1,45.4,30.19,NE,46,0.0,10.0,44,0.00,,FEW047,0.00,VWS V13.01,2013-01-23 06:23:00,
2013-01-23 01:28:00,68.1,45.4,30.19,NE,43,4.0,10.0,44,0.00,,FEW047,0.00,VWS V13.01,2013-01-23 06:28:00,
2013-01-23 01:33:00,68.1,45.4,30.19,NE,53,0.0,3.0,44,0.00,,FEW047,0.00,VWS V13.01,2013-01-23 06:33:00,
2013-01-23 01:38:00,68.2,46.1,30.19,NE,56,0.0,4.0,45,0.00,,FEW047,0.00,VWS V13.01,2013-01-23 06:38:00,
2013-01-23 01:43:00,68.4,46.8,30.19,ENE,65,0.0,10.0,46,0.00,,FEW047,0.00,VWS V13.01,2013-01-23 06:43:00,
2013-01-23 01:48:00,68.4,46.8,30.19,NNE,26,9.0,10.0,46,0.00,,FEW047,0.00,VWS V13.01,2013-01-23 06:48:00,
2013-01-23 01:53:00,68.5,46.9,30.19,NE,47,1.0,14.0,46,0.00,,FEW047,0.00,VWS V13.01,2013-01-23 06:53:00,
2013-01-23 01:58:00,68.4,46.2,30.19,NE,55,0.0,14.0,45,0.00,,FEW047,0.00,VWS V13.01,2013-01-23 06:58:00,
2013-01-23 02:03:00,68.3,44.3,30.18,ENE,66,2.0,12.0,42,0.00,,CLR,0.00,VWS V13.01,2013-01-23 07:03:00,
2013-01-23 02:08:00,68.4,45.7,30.18,ENE,57,1.0,12.0,44,0.00,,CLR,0.00,VWS V13.01,2013-01-23 07:08:00,
2013-01-23 02:13:00,68.5,45.8,30.18,NE,46,0.0,12.0,44,0.00,,CLR,0.00,VWS V13.01,2013-01-23 07:13:00,
2013-01-23 02:18:00,68.4,45.0,30.18,NE,46,1.0,12.0,43,0.00,,CLR,0.00,VWS V13.01,2013-01-23 07:18:00,
2013-01-23 02:23:00,68.2,43.6,30.18,NE,51,4.0,12.0,41,0.00,,CLR,0.00,VWS V13.01,2013-01-23 07:23:00,
2013-01-23 02:28:00,68.1,42.2,30.19,ENE,59,0.0,12.0,39,0.00,,CLR,0.00,VWS V13.01,2013-01-23 07:28:00,
2013-01-23 02:33:00,68.1,42.9,30.19,East,82,0.0,5.0,40,0.00,,CLR,0.00,VWS V13.01,2013-01-23 07:33:00,
2013-01-23 02:38:00,68.1,43.5,30.19,ENE,69,4.0,6.0,41,0.00,,CLR,0.00,VWS V13.01,2013-01-23 07:38:00,
2013-01-23 02:43:00,68.1,42.9,30.19,ENE,67,0.0,6.0,40,0.00,,CLR,0.00,VWS V13.01,2013-01-23 07:43:00,
2013-01-23 02:48:00,68.0,42.8,30.19,ENE,59,0.0,6.0,40,0.00,,CLR,0.00,VWS V13.01,2013-01-23 07:48:00,
2013-01-23 02:53:00,68.0,44.1,30.19,NE,46,0.0,8.0,42,0.00,,CLR,0.00,VWS V13.01,2013-01-23 07:53:00,
2013-01-23 02:58:00,68.0,44.7,30.19,NE,38,3.0,10.0,43,0.00,,CLR,0.00,VWS V13.01,2013-01-23 07:58:00,
2013-01-23 03:03:00,68.0,44.1,30.19,NE,38,0.0,0.0,42,0.00,,CLR,0.00,VWS V13.01,2013-01-23 08:03:00,
2013-01-23 03:08:00,67.8,43.9,30.19,NE,45,0.0,3.0,42,0.00,,CLR,0.00,VWS V13.01,2013-01-23 08:08:00,
2013-01-23 03:13:00,67.7,44.4,30.19,NE,55,0.0,6.0,43,0.00,,CLR,0.00,VWS V13.01,2013-01-23 08:13:00,
2013-01-23 03:18:00,67.7,44.4,30.19,NE,55,0.0,6.0,43,0.00,,CLR,0.00,VWS V13.01,2013-01-23 08:18:00,
2013-01-23 03:23:00,67.6,43.7,30.19,NE,55,1.0,7.0,42,0.00,,CLR,0.00,VWS V13.01,2013-01-23 08:23:00,
2013-01-23 03:28:00,67.6,44.3,30.19,NE,49,0.0,8.0,43,0.00,,CLR,0.00,VWS V13.01,2013-01-23 08:28:00,
2013-01-23 03:33:00,67.6,44.3,30.19,NE,46,0.0,0.0,43,0.00,,CLR,0.00,VWS V13.01,2013-01-23 08:33:00,
2013-01-23 03:38:00,67.5,43.6,30.19,NE,53,0.0,6.0,42,0.00,,CLR,0.00,VWS V13.01,2013-01-23 08:38:00,
2013-01-23 03:43:00,67.5,43.6,30.19,ENE,65,1.0,6.0,42,0.00,,CLR,0.00,VWS V13.01,2013-01-23 08:43:00,
2013-01-23 03:48:00,67.6,43.1,30.19,ENE,71,0.0,6.0,41,0.00,,CLR,0.00,VWS V13.01,2013-01-23 08:48:00,
2013-01-23 03:53:00,67.6,43.7,30.18,ENE,59,0.0,8.0,42,0.00,,CLR,0.00,VWS V13.01,2013-01-23 08:53:00,
2013-01-23 03:58:00,67.6,43.1,30.18,ENE,67,0.0,8.0,41,0.00,,CLR,0.00,VWS V13.01,2013-01-23 08:58:00,
2013-01-23 04:03:00,67.4,41.6,30.18,ENE,76,0.0,6.0,39,0.00,,CLR,0.00,VWS V13.01,2013-01-23 09:03:00,
2013-01-23 04:08:00,67.6,43.1,30.18,ENE,63,5.0,8.0,41,0.00,,CLR,0.00,VWS V13.01,2013-01-23 09:08:00,
2013-01-23 04:13:00,67.6,43.1,30.19,ENE,71,0.0,8.0,41,0.00,,CLR,0.00,VWS V13.01,2013-01-23 09:13:00,
2013-01-23 04:18:00,67.8,45.1,30.18,ENE,65,0.0,8.0,44,0.00,,CLR,0.00,VWS V13.01,2013-01-23 09:18:00,
2013-01-23 04:23:00,67.9,45.2,30.18,ENE,76,1.0,8.0,44,0.00,,CLR,0.00,VWS V13.01,2013-01-23 09:23:00,
2013-01-23 04:28:00,67.9,45.2,30.18,ENE,61,8.0,8.0,44,0.00,,CLR,0.00,VWS V13.01,2013-01-23 09:28:00,
2013-01-23 04:33:00,67.8,43.9,30.18,NE,54,0.0,4.0,42,0.00,,CLR,0.00,VWS V13.01,2013-01-23 09:33:00,
2013-01-23 04:38:00,67.8,43.3,30.18,NE,49,0.0,12.0,41,0.00,,CLR,0.00,VWS V13.01,2013-01-23 09:38:00,
2013-01-23 04:43:00,67.8,43.9,30.18,NE,44,9.0,12.0,42,0.00,,CLR,0.00,VWS V13.01,2013-01-23 09:43:00,
2013-01-23 04:48:00,67.9,44.0,30.18,NE,51,0.0,12.0,42,0.00,,CLR,0.00,VWS V13.01,2013-01-23 09:48:00,
2013-01-23 04:53:00,67.9,43.4,30.18,ENE,59,0.0,12.0,41,0.00,,CLR,0.00,VWS V13.01,2013-01-23 09:53:00,
2013-01-23 04:58:00,67.9,43.4,30.18,ENE,59,5.0,12.0,41,0.00,,CLR,0.00,VWS V13.01,2013-01-23 09:58:00,
2013-01-23 05:03:00,67.8,43.3,30.18,NE,50,5.0,6.0,41,0.00,,FEW043,0.00,VWS V13.01,2013-01-23 10:03:00,
2013-01-23 05:08:00,67.7,42.5,30.19,NE,51,0.0,6.0,40,0.00,,FEW043,0.00,VWS V13.01,2013-01-23 10:08:00,
2013-01-23 05:13:00,67.6,42.4,30.19,NE,51,0.0,6.0,40,0.00,,FEW043,0.00,VWS V13.01,2013-01-23 10:13:00,
2013-01-23 05:18:00,67.6,42.4,30.19,NE,51,0.0,6.0,40,0.00,,FEW043,0.00,VWS V13.01,2013-01-23 10:18:00,
2013-01-23 05:23:00,67.5,43.0,30.19,NE,51,4.0,6.0,41,0.00,,FEW043,0.00,VWS V13.01,2013-01-23 10:23:00,
2013-01-23 05:28:00,67.6,44.3,30.19,ENE,60,0.0,6.0,43,0.00,,FEW043,0.00,VWS V13.01,2013-01-23 10:28:00,
2013-01-23 05:33:00,67.7,45.0,30.19,NE,56,0.0,6.0,44,0.00,,FEW043,0.00,VWS V13.01,2013-01-23 10:33:00,
2013-01-23 05:38:00,67.8,45.7,30.19,NE,55,0.0,10.0,45,0.00,,FEW043,0.00,VWS V13.01,2013-01-23 10:38:00,
2013-01-23 05:43:00,67.9,46.4,30.20,NE,55,0.0,10.0,46,0.00,,FEW043,0.00,VWS V13.01,2013-01-23 10:43:00,
2013-01-23 05:48:00,68.0,46.5,30.20,East,81,8.0,10.0,46,0.00,,FEW043,0.00,VWS V13.01,2013-01-23 10:48:00,
2013-01-23 05:53:00,68.2,47.8,30.20,ENE,67,0.0,10.0,48,0.00,,FEW043,0.00,VWS V13.01,2013-01-23 10:53:00,
2013-01-23 05:58:00,68.2,48.9,30.21,ENE,59,4.0,10.0,50,0.00,,FEW043,0.00,VWS V13.01,2013-01-23 10:58:00,
2013-01-23 06:03:00,68.2,49.4,30.21,ENE,57,0.0,6.0,51,0.00,,CLR,0.00,VWS V13.01,2013-01-23 11:03:00,
2013-01-23 06:08:00,68.3,49.0,30.21,ENE,63,3.0,6.0,50,0.00,,CLR,0.00,VWS V13.01,2013-01-23 11:08:00,
2013-01-23 06:13:00,68.2,48.3,30.21,ENE,63,5.0,6.0,49,0.00,,CLR,0.00,VWS V13.01,2013-01-23 11:13:00,
2013-01-23 06:18:00,68.2,48.3,30.21,ENE,59,0.0,8.0,49,0.00,,CLR,0.00,VWS V13.01,2013-01-23 11:18:00,
2013-01-23 06:23:00,68.2,48.3,30.21,ENE,58,0.0,8.0,49,0.00,,CLR,0.00,VWS V13.01,2013-01-23 11:23:00,
2013-01-23 06:28:00,68.2,48.3,30.22,ENE,57,5.0,8.0,49,0.00,,CLR,0.00,VWS V13.01,2013-01-23 11:28:00,
2013-01-23 06:33:00,68.3,47.9,30.22,NE,50,1.0,4.0,48,0.00,,CLR,0.00,VWS V13.01,2013-01-23 11:33:00,
2013-01-23 06:38:00,68.3,47.3,30.22,NE,53,0.0,4.0,47,0.00,,CLR,0.00,VWS V13.01,2013-01-23 11:38:00,
2013-01-23 06:43:00,68.2,47.2,30.22,NE,50,0.0,4.0,47,0.00,,CLR,0.00,VWS V13.01,2013-01-23 11:43:00,
2013-01-23 06:48:00,68.2,47.2,30.22,ENE,78,0.0,10.0,47,0.00,,CLR,0.00,VWS V13.01,2013-01-23 11:48:00,
2013-01-23 06:53:00,68.2,48.3,30.21,NE,44,3.0,10.0,49,0.00,,CLR,0.00,VWS V13.01,2013-01-23 11:53:00,
2013-01-23 06:58:00,68.3,48.4,30.21,NE,47,2.0,11.0,49,0.00,,CLR,0.00,VWS V13.01,2013-01-23 11:58:00,
2013-01-23 07:03:00,68.5,48.6,30.22,ENE,57,0.0,7.0,49,0.00,,CLR,0.00,VWS V13.01,2013-01-23 12:03:00,
2013-01-23 07:08:00,68.5,48.6,30.23,ENE,61,2.0,7.0,49,0.00,,CLR,0.00,VWS V13.01,2013-01-23 12:08:00,
2013-01-23 07:13:00,68.6,49.2,30.23,NE,51,0.0,10.0,50,0.00,,CLR,0.00,VWS V13.01,2013-01-23 12:13:00,
2013-01-23 07:18:00,68.5,49.7,30.23,NE,52,2.0,10.0,51,0.00,,CLR,0.00,VWS V13.01,2013-01-23 12:18:00,
2013-01-23 07:23:00,68.6,49.8,30.23,NE,55,0.0,10.0,51,0.00,,CLR,0.00,VWS V13.01,2013-01-23 12:23:00,
2013-01-23 07:28:00,68.6,49.2,30.23,NE,55,0.0,10.0,50,0.00,,CLR,0.00,VWS V13.01,2013-01-23 12:28:00,
2013-01-23 07:33:00,68.1,42.9,30.23,NE,55,0.0,0.0,40,0.00,,CLR,0.00,VWS V13.01,2013-01-23 12:33:00,
2013-01-23 07:38:00,67.3,38.0,30.23,NE,55,0.0,2.0,34,0.00,,CLR,0.00,VWS V13.01,2013-01-23 12:38:00,
2013-01-23 07:43:00,66.4,33.2,30.24,NE,53,0.0,2.0,29,0.00,,CLR,0.00,VWS V13.01,2013-01-23 12:43:00,
2013-01-23 07:48:00,65.3,25.5,30.24,NE,44,0.0,4.0,22,0.00,,CLR,0.00,VWS V13.01,2013-01-23 12:48:00,
2013-01-23 07:53:00,64.3,15.7,30.24,NE,44,0.0,4.0,15,0.00,,CLR,0.00,VWS V13.01,2013-01-23 12:53:00,
2013-01-23 07:59:00,63.4,3.6,30.24,NW,325,0.0,4.0,9,0.00,,CLR,0.00,VWS V13.01,2013-01-23 12:59:00,
2013-01-23 08:04:00,62.8,-13.6,30.24,NW,326,0.0,0.0,4,0.00,,FEW047,0.00,VWS V13.01,2013-01-23 13:04:00,
2013-01-23 08:09:00,62.1,0.0,30.25,NNW,327,0.0,0.0,0,0.00,,FEW047,0.00,VWS V13.01,2013-01-23 13:09:00,
2013-01-23 08:14:00,61.6,0.0,30.25,NNW,327,0.0,3.0,0,0.00,,FEW047,0.00,VWS V13.01,2013-01-23 13:14:00,
2013-01-23 08:19:00,61.2,0.0,30.25,NNW,342,2.0,3.0,0,0.00,,FEW047,0.00,VWS V13.01,2013-01-23 13:19:00,
2013-01-23 08:24:00,60.9,0.0,30.25,North,355,0.0,4.0,0,0.00,,FEW047,0.00,VWS V13.01,2013-01-23 13:24:00,
2013-01-23 08:29:00,60.5,0.0,30.25,North,5,0.0,7.0,0,0.00,,FEW047,0.00,VWS V13.01,2013-01-23 13:29:00,
2013-01-23 08:34:00,60.4,0.0,30.25,North,10,0.0,6.0,0,0.00,,FEW047,0.00,VWS V13.01,2013-01-23 13:34:00,
2013-01-23 08:39:00,60.3,0.0,30.26,North,5,0.0,6.0,0,0.00,,FEW047,0.00,VWS V13.01,2013-01-23 13:39:00,
2013-01-23 08:44:00,60.2,0.0,30.26,North,10,0.0,6.0,0,0.00,,FEW047,0.00,VWS V13.01,2013-01-23 13:44:00,
2013-01-23 08:49:00,60.3,0.0,30.26,North,10,0.0,6.0,0,0.00,,FEW047,0.00,VWS V13.01,2013-01-23 13:49:00,
2013-01-23 08:54:00,60.7,0.0,30.26,North,9,4.0,6.0,0,0.00,,FEW047,0.00,VWS V13.01,2013-01-23 13:54:00,
2013-01-23 08:59:00,61.1,0.0,30.27,North,5,0.0,6.0,0,0.00,,FEW047,0.00,VWS V13.01,2013-01-23 13:59:00,
2013-01-23 09:04:00,61.3,0.0,30.27,North,5,0.0,0.0,0,0.00,,BKN100,0.00,VWS V13.01,2013-01-23 14:04:00,
2013-01-23 09:09:00,61.8,0.0,30.27,North,5,0.0,0.0,0,0.00,,BKN100,0.00,VWS V13.01,2013-01-23 14:09:00,
2013-01-23 09:14:00,62.5,0.0,30.27,North,5,4.0,7.0,0,0.00,,BKN100,0.00,VWS V13.01,2013-01-23 14:14:00,
2013-01-23 09:19:00,63.0,0.0,30.27,North,9,0.0,7.0,0,0.00,,BKN100,0.00,VWS V13.01,2013-01-23 14:19:00,
2013-01-23 09:24:00,63.6,0.0,30.27,North,10,1.0,7.0,0,0.00,,BKN100,0.00,VWS V13.01,2013-01-23 14:24:00,
2013-01-23 09:29:00,63.9,0.0,30.27,North,5,1.0,7.0,0,0.00,,BKN100,0.00,VWS V13.01,2013-01-23 14:29:00,
2013-01-23 09:34:00,64.5,0.0,30.27,North,5,0.0,3.0,0,0.00,,BKN100,0.00,VWS V13.01,2013-01-23 14:34:00,
2013-01-23 09:39:00,64.9,0.0,30.28,North,5,0.0,7.0,0,0.00,,BKN100,0.00,VWS V13.01,2013-01-23 14:39:00,
2013-01-23 09:44:00,65.2,0.0,30.28,North,5,7.0,8.0,0,0.00,,BKN100,0.00,VWS V13.01,2013-01-23 14:44:00,
2013-01-23 09:49:00,66.6,6.0,30.28,North,5,0.0,8.0,9,0.00,,BKN100,0.00,VWS V13.01,2013-01-23 14:49:00,
2013-01-23 09:54:00,67.1,16.3,30.28,North,5,1.0,8.0,14,0.00,,BKN100,0.00,VWS V13.01,2013-01-23 14:54:00,
2013-01-23 09:59:00,67.4,19.7,30.28,North,11,6.0,8.0,16,0.00,,BKN100,0.00,VWS V13.01,2013-01-23 14:59:00,
2013-01-23 10:04:00,67.3,21.0,30.28,North,9,2.0,5.0,17,0.00,,BKN160,0.00,VWS V13.01,2013-01-23 15:04:00,
2013-01-23 10:09:00,67.2,14.7,30.28,North,5,0.0,6.0,13,0.00,,BKN160,0.00,VWS V13.01,2013-01-23 15:09:00,
2013-01-23 10:14:00,67.3,18.1,30.28,North,360,0.0,7.0,15,0.00,,BKN160,0.00,VWS V13.01,2013-01-23 15:14:00,
2013-01-23 10:19:00,67.3,21.0,30.28,North,360,0.0,7.0,17,0.00,,BKN160,0.00,VWS V13.01,2013-01-23 15:19:00,
2013-01-23 10:24:00,67.4,21.1,30.28,North,360,0.0,7.0,17,0.00,,BKN160,0.00,VWS V13.01,2013-01-23 15:24:00,
2013-01-23 10:29:00,67.4,21.1,30.28,North,360,3.0,7.0,17,0.00,,BKN160,0.00,VWS V13.01,2013-01-23 15:29:00,
2013-01-23 10:34:00,67.6,18.3,30.28,North,360,3.0,7.0,15,0.00,,BKN160,0.00,VWS V13.01,2013-01-23 15:34:00,
2013-01-23 10:39:00,68.2,21.8,30.28,North,360,0.0,7.0,17,0.00,,BKN160,0.00,VWS V13.01,2013-01-23 15:39:00,
2013-01-23 10:44:00,68.8,28.4,30.28,North,360,3.0,7.0,22,0.00,,BKN160,0.00,VWS V13.01,2013-01-23 15:44:00,
2013-01-23 10:49:00,68.7,28.4,30.28,North,5,0.0,7.0,22,0.00,,BKN160,0.00,VWS V13.01,2013-01-23 15:49:00,
2013-01-23 10:54:00,68.5,27.1,30.28,North,360,0.0,7.0,21,0.00,,BKN160,0.00,VWS V13.01,2013-01-23 15:54:00,
2013-01-23 10:59:00,68.6,28.3,30.28,North,355,3.0,7.0,22,0.00,,BKN160,0.00,VWS V13.01,2013-01-23 15:59:00,
2013-01-23 11:04:00,68.6,26.0,30.28,North,355,3.0,7.0,20,0.00,,BKN150,0.00,VWS V13.01,2013-01-23 16:04:00,
2013-01-23 11:09:00,69.0,25.1,30.28,North,355,0.0,7.0,19,0.00,,BKN150,0.00,VWS V13.01,2013-01-23 16:09:00,
2013-01-23 11:14:00,70.5,33.0,30.28,North,350,0.0,7.0,25,0.00,,BKN150,0.00,VWS V13.01,2013-01-23 16:14:00,
2013-01-23 11:19:00,71.4,40.0,30.27,North,9,6.0,7.0,32,0.00,,BKN150,0.00,VWS V13.01,2013-01-23 16:19:00,
2013-01-23 11:24:00,71.9,44.2,30.27,NNE,19,2.0,8.0,37,0.00,,BKN150,0.00,VWS V13.01,2013-01-23 16:24:00,
2013-01-23 11:29:00,71.9,44.2,30.27,NNE,17,3.0,8.0,37,0.00,,BKN150,0.00,VWS V13.01,2013-01-23 16:29:00,
2013-01-23 11:34:00,72.2,46.6,30.27,North,11,4.0,10.0,40,0.00,,BKN150,0.00,VWS V13.01,2013-01-23 16:34:00,
2013-01-23 11:39:00,72.0,47.0,30.27,North,9,5.0,10.0,41,0.00,,BKN150,0.00,VWS V13.01,2013-01-23 16:39:00,
2013-01-23 11:44:00,71.8,46.2,30.27,North,11,0.0,10.0,40,0.00,,BKN150,0.00,VWS V13.01,2013-01-23 16:44:00,
2013-01-23 11:48:00,71.9,47.6,30.26,NNE,26,4.0,10.0,42,0.00,,BKN150,0.00,VWS V13.01,2013-01-23 16:48:00,
2013-01-23 11:53:00,72.4,49.3,30.25,NNE,33,6.0,10.0,44,0.00,,BKN150,0.00,VWS V13.01,2013-01-23 16:53:00,
2013-01-23 11:58:00,73.4,53.7,30.25,NE,50,4.0,11.0,50,0.00,,BKN150,0.00,VWS V13.01,2013-01-23 16:58:00,
2013-01-23 12:04:00,74.2,54.9,30.25,NE,42,9.0,10.0,51,0.00,,FEW048,0.00,VWS V13.01,2013-01-23 17:04:00,
2013-01-23 12:08:00,74.2,54.9,30.26,ENE,59,8.0,11.0,51,0.00,,FEW048,0.00,VWS V13.01,2013-01-23 17:08:00,
2013-01-23 12:13:00,73.8,54.6,30.25,East,81,7.0,13.0,51,0.00,,FEW048,0.00,VWS V13.01,2013-01-23 17:13:00,
2013-01-23 12:18:00,74.0,54.7,30.25,NNE,32,2.0,13.0,51,0.00,,FEW048,0.00,VWS V13.01,2013-01-23 17:18:00,
2013-01-23 12:23:00,74.8,55.5,30.25,NE,43,8.0,13.0,51,0.00,,FEW048,0.00,VWS V13.01,2013-01-23 17:23:00,
2013-01-23 12:28:00,74.6,55.3,30.24,NE,53,4.0,13.0,51,0.00,,FEW048,0.00,VWS V13.01,2013-01-23 17:28:00,
2013-01-23 12:33:00,74.6,55.3,30.24,East,88,7.0,11.0,51,0.00,,FEW048,0.00,VWS V13.01,2013-01-23 17:33:00,
2013-01-23 12:38:00,74.6,55.3,30.24,NE,55,6.0,13.0,51,0.00,,FEW048,0.00,VWS V13.01,2013-01-23 17:38:00,
2013-01-23 12:43:00,74.0,54.7,30.24,ENE,78,5.0,17.0,51,0.00,,FEW048,0.00,VWS V13.01,2013-01-23 17:43:00,
2013-01-23 12:48:00,73.6,54.4,30.24,ENE,66,5.0,17.0,51,0.00,,FEW048,0.00,VWS V13.01,2013-01-23 17:48:00,
2013-01-23 12:53:00,74.4,55.1,30.24,ENE,72,4.0,17.0,51,0.00,,FEW048,0.00,VWS V13.01,2013-01-23 17:53:00,
2013-01-23 12:58:00,74.6,55.3,30.24,NE,40,0.0,17.0,51,0.00,,FEW048,0.00,VWS V13.01,2013-01-23 17:58:00,
2013-01-23 13:03:00,74.0,54.7,30.24,NE,51,6.0,8.0,51,0.00,,BKN048,0.00,VWS V13.01,2013-01-23 18:03:00,
2013-01-23 13:08:00,73.8,54.6,30.23,ENE,63,6.0,11.0,51,0.00,,BKN048,0.00,VWS V13.01,2013-01-23 18:08:00,
2013-01-23 13:13:00,73.8,54.6,30.23,East,80,2.0,11.0,51,0.00,,BKN048,0.00,VWS V13.01,2013-01-23 18:13:00,
2013-01-23 13:18:00,73.6,54.4,30.23,NE,51,6.0,11.0,51,0.00,,BKN048,0.00,VWS V13.01,2013-01-23 18:18:00,
2013-01-23 13:23:00,73.8,54.6,30.22,ENE,67,4.0,12.0,51,0.00,,BKN048,0.00,VWS V13.01,2013-01-23 18:23:00,
2013-01-23 13:28:00,73.9,54.7,30.22,East,79,4.0,12.0,51,0.00,,BKN048,0.00,VWS V13.01,2013-01-23 18:28:00,
2013-01-23 13:33:00,74.1,54.8,30.22,East,96,7.0,12.0,51,0.00,,BKN048,0.00,VWS V13.01,2013-01-23 18:33:00,
2013-01-23 13:38:00,74.3,55.0,30.22,ENE,78,3.0,12.0,51,0.00,,BKN048,0.00,VWS V13.01,2013-01-23 18:38:00,
2013-01-23 13:43:00,73.8,54.6,30.22,NE,36,5.0,13.0,51,0.00,,BKN048,0.00,VWS V13.01,2013-01-23 18:43:00,
2013-01-23 13:48:00,73.7,54.5,30.22,NE,53,8.0,13.0,51,0.00,,BKN048,0.00,VWS V13.01,2013-01-23 18:48:00,
2013-01-23 13:53:00,73.8,54.6,30.22,East,81,7.0,14.0,51,0.00,,BKN048,0.00,VWS V13.01,2013-01-23 18:53:00,
2013-01-23 13:58:00,73.3,54.6,30.22,East,96,7.0,14.0,52,0.00,,BKN048,0.00,VWS V13.01,2013-01-23 18:58:00,
2013-01-23 14:03:00,72.9,54.3,30.22,ENE,67,0.0,8.0,52,0.00,,SCT050,0.00,VWS V13.01,2013-01-23 19:03:00,
2013-01-23 14:08:00,73.6,54.4,30.22,ENE,74,5.0,12.0,51,0.00,,SCT050,0.00,VWS V13.01,2013-01-23 19:08:00,
2013-01-23 14:13:00,73.7,54.5,30.22,ENE,69,4.0,13.0,51,0.00,,SCT050,0.00,VWS V13.01,2013-01-23 19:13:00,
2013-01-23 14:18:00,73.8,55.1,30.22,ENE,66,7.0,13.0,52,0.00,,SCT050,0.00,VWS V13.01,2013-01-23 19:18:00,
2013-01-23 14:23:00,73.6,54.9,30.22,ENE,73,3.0,13.0,52,0.00,,SCT050,0.00,VWS V13.01,2013-01-23 19:23:00,
2013-01-23 14:28:00,73.1,54.5,30.22,East,90,6.0,13.0,52,0.00,,SCT050,0.00,VWS V13.01,2013-01-23 19:28:00,
2013-01-23 14:33:00,73.8,55.1,30.22,ESE,104,2.0,9.0,52,0.00,,SCT050,0.00,VWS V13.01,2013-01-23 19:33:00,
2013-01-23 14:38:00,73.9,54.7,30.22,East,88,3.0,13.0,51,0.00,,SCT050,0.00,VWS V13.01,2013-01-23 19:38:00,
2013-01-23 14:43:00,73.5,54.8,30.22,East,83,4.0,13.0,52,0.00,,SCT050,0.00,VWS V13.01,2013-01-23 19:43:00,
2013-01-23 14:48:00,73.1,54.5,30.21,East,94,6.0,13.0,52,0.00,,SCT050,0.00,VWS V13.01,2013-01-23 19:48:00,
2013-01-23 14:53:00,73.0,54.4,30.21,ENE,61,5.0,13.0,52,0.00,,SCT050,0.00,VWS V13.01,2013-01-23 19:53:00,
2013-01-23 14:58:00,73.4,54.7,30.21,NE,45,6.0,13.0,52,0.00,,SCT050,0.00,VWS V13.01,2013-01-23 19:58:00,
2013-01-23 15:03:00,74.0,55.3,30.21,ENE,77,5.0,6.0,52,0.00,,SCT047,0.00,VWS V13.01,2013-01-23 20:03:00,
2013-01-23 15:08:00,74.3,55.0,30.22,East,93,4.0,7.0,51,0.00,,SCT047,0.00,VWS V13.01,2013-01-23 20:08:00,
2013-01-23 15:13:00,74.4,55.1,30.21,ENE,71,1.0,10.0,51,0.00,,SCT047,0.00,VWS V13.01,2013-01-23 20:13:00,
2013-01-23 15:18:00,74.2,54.9,30.21,ENE,75,4.0,11.0,51,0.00,,SCT047,0.00,VWS V13.01,2013-01-23 20:18:00,
2013-01-23 15:23:00,73.5,54.8,30.21,NE,53,8.0,11.0,52,0.00,,SCT047,0.00,VWS V13.01,2013-01-23 20:23:00,
2013-01-23 15:28:00,73.1,54.5,30.21,ENE,78,7.0,11.0,52,0.00,,SCT047,0.00,VWS V13.01,2013-01-23 20:28:00,
2013-01-23 15:33:00,72.7,54.1,30.22,East,80,2.0,11.0,52,0.00,,SCT047,0.00,VWS V13.01,2013-01-23 20:33:00,
2013-01-23 15:38:00,72.3,53.7,30.22,ENE,67,4.0,11.0,52,0.00,,SCT047,0.00,VWS V13.01,2013-01-23 20:38:00,
2013-01-23 15:43:00,72.3,53.7,30.22,East,86,5.0,11.0,52,0.00,,SCT047,0.00,VWS V13.01,2013-01-23 20:43:00,
2013-01-23 15:48:00,72.3,53.7,30.22,East,80,6.0,11.0,52,0.00,,SCT047,0.00,VWS V13.01,2013-01-23 20:48:00,
2013-01-23 15:53:00,72.4,53.8,30.22,ENE,62,4.0,11.0,52,0.00,,SCT047,0.00,VWS V13.01,2013-01-23 20:53:00,
2013-01-23 15:58:00,72.0,53.4,30.22,East,83,3.0,12.0,52,0.00,,SCT047,0.00,VWS V13.01,2013-01-23 20:58:00,
2013-01-23 16:03:00,72.1,53.5,30.22,ENE,63,0.0,8.0,52,0.00,,SCT047,0.00,VWS V13.01,2013-01-23 21:03:00,
2013-01-23 16:08:00,72.0,53.4,30.23,ENE,69,3.0,9.0,52,0.00,,SCT047,0.00,VWS V13.01,2013-01-23 21:08:00,
2013-01-23 16:13:00,71.7,53.2,30.23,East,79,2.0,9.0,52,0.00,,SCT047,0.00,VWS V13.01,2013-01-23 21:13:00,
2013-01-23 16:18:00,71.6,53.1,30.23,NE,42,2.0,12.0,52,0.00,,SCT047,0.00,VWS V13.01,2013-01-23 21:18:00,
2013-01-23 16:23:00,71.6,53.1,30.23,ENE,71,3.0,12.0,52,0.00,,SCT047,0.00,VWS V13.01,2013-01-23 21:23:00,
2013-01-23 16:28:00,71.7,53.2,30.23,ENE,66,4.0,12.0,52,0.00,,SCT047,0.00,VWS V13.01,2013-01-23 21:28:00,
2013-01-23 16:33:00,71.7,53.2,30.23,NE,43,0.0,7.0,52,0.00,,SCT047,0.00,VWS V13.01,2013-01-23 21:33:00,
2013-01-23 16:38:00,71.6,53.1,30.23,ENE,70,0.0,8.0,52,0.00,,SCT047,0.00,VWS V13.01,2013-01-23 21:38:00,
2013-01-23 16:43:00,71.5,53.0,30.23,ENE,57,3.0,12.0,52,0.00,,SCT047,0.00,VWS V13.01,2013-01-23 21:43:00,
2013-01-23 16:48:00,71.4,52.9,30.23,East,81,6.0,12.0,52,0.00,,SCT047,0.00,VWS V13.01,2013-01-23 21:48:00,
2013-01-23 16:53:00,71.2,52.7,30.23,ENE,73,5.0,12.0,52,0.00,,SCT047,0.00,VWS V13.01,2013-01-23 21:53:00,
2013-01-23 16:58:00,71.1,52.1,30.23,ENE,71,5.0,12.0,51,0.00,,SCT047,0.00,VWS V13.01,2013-01-23 21:58:00,
2013-01-23 17:03:00,71.0,52.0,30.22,NE,56,4.0,6.0,51,0.00,,FEW047,0.00,VWS V13.01,2013-01-23 22:03:00,
2013-01-23 17:08:00,70.9,52.4,30.22,ENE,65,5.0,10.0,52,0.00,,FEW047,0.00,VWS V13.01,2013-01-23 22:08:00,
2013-01-23 17:13:00,70.8,52.3,30.23,ENE,70,4.0,10.0,52,0.00,,FEW047,0.00,VWS V13.01,2013-01-23 22:13:00,
2013-01-23 17:18:00,70.7,52.2,30.23,ENE,71,3.0,10.0,52,0.00,,FEW047,0.00,VWS V13.01,2013-01-23 22:18:00,
2013-01-23 17:23:00,70.7,51.7,30.23,NE,44,6.0,10.0,51,0.00,,FEW047,0.00,VWS V13.01,2013-01-23 22:23:00,
2013-01-23 17:28:00,70.5,51.0,30.23,ENE,59,6.0,10.0,50,0.00,,FEW047,0.00,VWS V13.01,2013-01-23 22:28:00,
2013-01-23 17:33:00,70.3,50.8,30.23,East,90,8.0,8.0,50,0.00,,FEW047,0.00,VWS V13.01,2013-01-23 22:33:00,
2013-01-23 17:38:00,70.1,50.6,30.23,NE,53,1.0,9.0,50,0.00,,FEW047,0.00,VWS V13.01,2013-01-23 22:38:00,
2013-01-23 17:43:00,70.0,50.0,30.23,ENE,78,5.0,11.0,49,0.00,,FEW047,0.00,VWS V13.01,2013-01-23 22:43:00,
2013-01-23 17:48:00,69.8,49.2,30.23,East,83,3.0,11.0,48,0.00,,FEW047,0.00,VWS V13.01,2013-01-23 22:48:00,
2013-01-23 17:53:00,69.6,49.1,30.23,ENE,76,2.0,11.0,48,0.00,,FEW047,0.00,VWS V13.01,2013-01-23 22:53:00,
2013-01-23 17:58:00,69.5,48.4,30.23,ENE,58,0.0,11.0,47,0.00,,FEW047,0.00,VWS V13.01,2013-01-23 22:58:00,
2013-01-23 18:03:00,69.4,48.9,30.23,ENE,57,0.0,4.0,48,0.00,,SCT055,0.00,VWS V13.01,2013-01-23 23:03:00,
2013-01-23 18:08:00,69.3,48.8,30.23,ENE,59,0.0,6.0,48,0.00,,SCT055,0.00,VWS V13.01,2013-01-23 23:08:00,
2013-01-23 18:13:00,69.2,49.2,30.23,ENE,64,1.0,6.0,49,0.00,,SCT055,0.00,VWS V13.01,2013-01-23 23:13:00,
2013-01-23 18:18:00,69.2,48.7,30.23,ENE,65,0.0,6.0,48,0.00,,SCT055,0.00,VWS V13.01,2013-01-23 23:18:00,
2013-01-23 18:23:00,69.1,48.0,30.23,ENE,67,0.0,6.0,47,0.00,,SCT055,0.00,VWS V13.01,2013-01-23 23:23:00,
2013-01-23 18:28:00,69.0,48.5,30.23,ENE,67,0.0,6.0,48,0.00,,SCT055,0.00,VWS V13.01,2013-01-23 23:28:00,
2013-01-23 18:33:00,69.0,48.5,30.23,ENE,63,1.0,1.0,48,0.00,,SCT055,0.00,VWS V13.01,2013-01-23 23:33:00,
2013-01-23 18:38:00,68.9,49.0,30.23,ENE,67,2.0,5.0,49,0.00,,SCT055,0.00,VWS V13.01,2013-01-23 23:38:00,
2013-01-23 18:43:00,68.8,48.3,30.23,ENE,70,0.0,5.0,48,0.00,,SCT055,0.00,VWS V13.01,2013-01-23 23:43:00,
2013-01-23 18:48:00,68.8,48.3,30.23,ENE,68,0.0,6.0,48,0.00,,SCT055,0.00,VWS V13.01,2013-01-23 23:48:00,
2013-01-23 18:53:00,68.7,48.2,30.23,ENE,69,3.0,6.0,48,0.00,,SCT055,0.00,VWS V13.01,2013-01-23 23:53:00,
2013-01-23 18:58:00,68.6,48.2,30.24,ENE,68,0.0,6.0,48,0.00,,SCT055,0.00,VWS V13.01,2013-01-23 23:58:00,
2013-01-23 19:03:00,68.5,48.1,30.24,ENE,68,0.0,0.0,48,0.00,,CLR,0.00,VWS V13.01,2013-01-24 00:03:00,
2013-01-23 19:08:00,68.5,48.1,30.24,ENE,68,2.0,3.0,48,0.00,,CLR,0.00,VWS V13.01,2013-01-24 00:08:00,
2013-01-23 19:13:00,68.4,48.0,30.24,ENE,68,0.0,3.0,48,0.00,,CLR,0.00,VWS V13.01,2013-01-24 00:13:00,
2013-01-23 19:18:00,68.4,47.4,30.25,ENE,68,0.0,3.0,47,0.00,,CLR,0.00,VWS V13.01,2013-01-24 00:18:00,
2013-01-23 19:23:00,68.3,47.3,30.25,ENE,68,0.0,3.0,47,0.00,,CLR,0.00,VWS V13.01,2013-01-24 00:23:00,
2013-01-23 19:28:00,68.3,47.3,30.25,ENE,68,0.0,3.0,47,0.00,,CLR,0.00,VWS V13.01,2013-01-24 00:28:00,
2013-01-23 19:33:00,68.2,47.2,30.25,ENE,68,0.0,0.0,47,0.00,,CLR,0.00,VWS V13.01,2013-01-24 00:33:00,
2013-01-23 19:38:00,68.1,47.1,30.25,ENE,68,0.0,0.0,47,0.00,,CLR,0.00,VWS V13.01,2013-01-24 00:38:00,
2013-01-23 19:43:00,68.0,47.0,30.25,ENE,68,0.0,0.0,47,0.00,,CLR,0.00,VWS V13.01,2013-01-24 00:43:00,
2013-01-23 19:48:00,67.9,46.4,30.25,ENE,68,0.0,0.0,46,0.00,,CLR,0.00,VWS V13.01,2013-01-24 00:48:00,
2013-01-23 19:53:00,67.9,46.4,30.25,ENE,68,0.0,0.0,46,0.00,,CLR,0.00,VWS V13.01,2013-01-24 00:53:00,
2013-01-23 19:58:00,67.8,45.7,30.25,ENE,68,0.0,2.0,45,0.00,,CLR,0.00,VWS V13.01,2013-01-24 00:58:00,
2013-01-23 20:03:00,67.8,45.1,30.25,ENE,68,0.0,2.0,44,0.00,,SCT070,0.00,VWS V13.01,2013-01-24 01:03:00,
2013-01-23 20:08:00,67.8,45.1,30.25,ENE,68,0.0,2.0,44,0.00,,SCT070,0.00,VWS V13.01,2013-01-24 01:08:00,
2013-01-23 20:13:00,67.7,45.0,30.25,ENE,68,0.0,2.0,44,0.00,,SCT070,0.00,VWS V13.01,2013-01-24 01:13:00,
2013-01-23 20:18:00,67.6,44.9,30.25,ENE,68,0.0,2.0,44,0.00,,SCT070,0.00,VWS V13.01,2013-01-24 01:18:00,
2013-01-23 20:23:00,67.6,44.3,30.25,ENE,68,0.0,2.0,43,0.00,,SCT070,0.00,VWS V13.01,2013-01-24 01:23:00,
2013-01-23 20:28:00,67.4,44.2,30.25,ENE,68,0.0,2.0,43,0.00,,SCT070,0.00,VWS V13.01,2013-01-24 01:28:00,
2013-01-23 20:33:00,67.3,43.5,30.26,ENE,68,0.0,0.0,42,0.00,,SCT070,0.00,VWS V13.01,2013-01-24 01:33:00,
2013-01-23 20:38:00,67.2,42.7,30.26,ENE,68,0.0,0.0,41,0.00,,SCT070,0.00,VWS V13.01,2013-01-24 01:38:00,
2013-01-23 20:43:00,67.2,42.1,30.26,ENE,68,0.0,0.0,40,0.00,,SCT070,0.00,VWS V13.01,2013-01-24 01:43:00,
2013-01-23 20:48:00,67.1,42.0,30.26,ENE,68,0.0,0.0,40,0.00,,SCT070,0.00,VWS V13.01,2013-01-24 01:48:00,
2013-01-23 20:53:00,67.0,40.6,30.26,ENE,64,2.0,4.0,38,0.00,,SCT070,0.00,VWS V13.01,2013-01-24 01:53:00,
2013-01-23 20:58:00,66.4,34.0,30.26,ENE,63,2.0,5.0,30,0.00,,SCT070,0.00,VWS V13.01,2013-01-24 01:58:00,
2013-01-23 21:03:00,65.7,25.8,30.26,ENE,63,0.0,3.0,22,0.00,,SCT048,0.00,VWS V13.01,2013-01-24 02:03:00,
2013-01-23 21:08:00,64.9,11.1,30.26,ENE,63,0.0,4.0,12,0.00,,SCT048,0.00,VWS V13.01,2013-01-24 02:08:00,
2013-01-23 21:13:00,64.1,-18.4,30.26,ENE,57,0.0,5.0,3,0.00,,SCT048,0.00,VWS V13.01,2013-01-24 02:13:00,
2013-01-23 21:18:00,63.3,0.0,30.26,NE,55,5.0,5.0,0,0.00,,SCT048,0.00,VWS V13.01,2013-01-24 02:18:00,
2013-01-23 21:23:00,62.7,0.0,30.26,NE,55,2.0,5.0,0,0.00,,SCT048,0.00,VWS V13.01,2013-01-24 02:23:00,
2013-01-23 21:28:00,62.2,0.0,30.27,NE,52,0.0,5.0,0,0.00,,SCT048,0.00,VWS V13.01,2013-01-24 02:28:00,
2013-01-23 21:33:00,61.9,0.0,30.27,NE,51,0.0,0.0,0,0.00,,SCT048,0.00,VWS V13.01,2013-01-24 02:33:00,
2013-01-23 21:38:00,61.7,0.0,30.27,NE,43,0.0,5.0,0,0.00,,SCT048,0.00,VWS V13.01,2013-01-24 02:38:00,
2013-01-23 21:43:00,61.5,0.0,30.27,NE,43,0.0,5.0,0,0.00,,SCT048,0.00,VWS V13.01,2013-01-24 02:43:00,
2013-01-23 21:48:00,61.3,0.0,30.27,NE,42,0.0,5.0,0,0.00,,SCT048,0.00,VWS V13.01,2013-01-24 02:48:00,
2013-01-23 21:53:00,61.1,0.0,30.27,NE,42,0.0,5.0,0,0.00,,SCT048,0.00,VWS V13.01,2013-01-24 02:53:00,
2013-01-23 21:58:00,61.0,0.0,30.27,NE,42,0.0,5.0,0,0.00,,SCT048,0.00,VWS V13.01,2013-01-24 02:58:00,
2013-01-23 22:03:00,61.0,0.0,30.27,NE,42,0.0,0.0,0,0.00,,SCT050,0.00,VWS V13.01,2013-01-24 03:03:00,
2013-01-23 22:08:00,61.0,0.0,30.27,NE,42,0.0,0.0,0,0.00,,SCT050,0.00,VWS V13.01,2013-01-24 03:08:00,
2013-01-23 22:13:00,61.1,0.0,30.27,NE,42,0.0,0.0,0,0.00,,SCT050,0.00,VWS V13.01,2013-01-24 03:13:00,
2013-01-23 22:18:00,61.1,0.0,30.27,NE,42,0.0,0.0,0,0.00,,SCT050,0.00,VWS V13.01,2013-01-24 03:18:00,
2013-01-23 22:23:00,61.3,0.0,30.27,NE,42,0.0,0.0,0,0.00,,SCT050,0.00,VWS V13.01,2013-01-24 03:23:00,
2013-01-23 22:28:00,61.3,0.0,30.27,NE,42,0.0,0.0,0,0.00,,SCT050,0.00,VWS V13.01,2013-01-24 03:28:00,
2013-01-23 22:33:00,61.4,0.0,30.27,NE,42,0.0,0.0,0,0.00,,SCT050,0.00,VWS V13.01,2013-01-24 03:33:00,
2013-01-23 22:38:00,61.3,0.0,30.27,NE,42,0.0,0.0,0,0.00,,SCT050,0.00,VWS V13.01,2013-01-24 03:38:00,
2013-01-23 22:43:00,61.3,0.0,30.27,NE,42,0.0,0.0,0,0.00,,SCT050,0.00,VWS V13.01,2013-01-24 03:43:00,
2013-01-23 22:48:00,61.3,0.0,30.26,NE,41,0.0,0.0,0,0.00,,SCT050,0.00,VWS V13.01,2013-01-24 03:48:00,
2013-01-23 22:53:00,61.4,0.0,30.26,NE,42,0.0,4.0,0,0.00,,SCT050,0.00,VWS V13.01,2013-01-24 03:53:00,
2013-01-23 22:58:00,61.4,0.0,30.26,NE,42,0.0,4.0,0,0.00,,SCT050,0.00,VWS V13.01,2013-01-24 03:58:00,
2013-01-23 23:03:00,61.5,0.0,30.26,NE,42,0.0,0.0,0,0.00,,CLR,0.00,VWS V13.01,2013-01-24 04:03:00,
2013-01-23 23:08:00,61.5,0.0,30.26,NE,42,0.0,0.0,0,0.00,,CLR,0.00,VWS V13.01,2013-01-24 04:08:00,
2013-01-23 23:13:00,61.5,0.0,30.26,NE,41,0.0,0.0,0,0.00,,CLR,0.00,VWS V13.01,2013-01-24 04:13:00,
2013-01-23 23:18:00,61.4,0.0,30.26,NE,42,0.0,0.0,0,0.00,,CLR,0.00,VWS V13.01,2013-01-24 04:18:00,
2013-01-23 23:23:00,61.4,0.0,30.26,NE,42,0.0,0.0,0,0.00,,CLR,0.00,VWS V13.01,2013-01-24 04:23:00,
2013-01-23 23:28:00,61.5,0.0,30.26,NE,42,0.0,0.0,0,0.00,,CLR,0.00,VWS V13.01,2013-01-24 04:28:00,
2013-01-23 23:33:00,61.4,0.0,30.26,NE,42,0.0,0.0,0,0.00,,CLR,0.00,VWS V13.01,2013-01-24 04:33:00,
2013-01-23 23:38:00,61.4,0.0,30.26,NE,41,0.0,0.0,0,0.00,,CLR,0.00,VWS V13.01,2013-01-24 04:38:00,
2013-01-23 23:43:00,61.4,0.0,30.26,NE,41,0.0,0.0,0,0.00,,CLR,0.00,VWS V13.01,2013-01-24 04:43:00,
2013-01-23 23:48:00,61.4,0.0,30.25,NE,42,0.0,0.0,0,0.00,,CLR,0.00,VWS V13.01,2013-01-24 04:48:00,
2013-01-23 23:53:00,61.4,0.0,30.25,NE,42,0.0,0.0,0,0.00,,CLR,0.00,VWS V13.01,2013-01-24 04:53:00,
2013-01-23 23:58:00,61.4,0.0,30.25,NE,42,0.0,0.0,0,0.00,,CLR,0.00,VWS V13.01,2013-01-24 04:58:00,